Time,TemperatureF,DewpointF,PressureIn,WindDirection,WindDirectionDegrees,WindSpeedMPH,WindSpeedGustMPH,Humidity,HourlyPrecipIn,Conditions,Clouds,dailyrainin,SoftwareType,DateUTC
2013-02-23 00:00:00,40.6,40.6,30.13,NNE,30,0.0,0.0,100,0.00,,,0.50,WeatherDisplay:10.37,2013-02-23 05:00:00,
2013-02-23 00:05:00,40.6,40.6,30.13,NNE,30,0.0,0.0,100,0.00,RA,,0.00,WeatherDisplay:10.37,2013-02-23 05:05:00,
2013-02-23 00:10:00,40.8,40.8,30.14,NNE,30,0.0,0.0,100,0.00,,,0.00,WeatherDisplay:10.37,2013-02-23 05:10:00,
2013-02-23 00:15:00,40.7,40.7,30.11,NNE,30,0.0,0.0,100,0.01,RA,,0.01,WeatherDisplay:10.37,2013-02-23 05:15:00,
2013-02-23 00:20:00,40.3,40.3,30.10,NNE,30,0.0,0.0,100,0.01,RA,,0.01,WeatherDisplay:10.37,2013-02-23 05:20:00,
2013-02-23 00:25:00,40.2,40.2,30.10,NNE,30,0.0,0.0,100,0.01,CLR,,0.01,WeatherDisplay:10.37,2013-02-23 05:25:00,
2013-02-23 00:30:00,40.2,40.2,30.10,NNE,30,0.0,0.0,100,0.01,,,0.01,WeatherDisplay:10.37,2013-02-23 05:30:00,
2013-02-23 00:35:00,40.2,40.2,30.10,NNE,30,0.0,0.0,100,0.01,,,0.01,WeatherDisplay:10.37,2013-02-23 05:35:00,
2013-02-23 00:40:00,40.1,40.1,30.10,NNE,30,0.0,0.0,100,0.01,,,0.01,WeatherDisplay:10.37,2013-02-23 05:40:00,
2013-02-23 00:45:00,40.3,40.3,30.11,NNE,30,0.0,0.0,100,0.01,,,0.01,WeatherDisplay:10.37,2013-02-23 05:45:00,
2013-02-23 00:50:00,40.4,40.4,30.09,NNE,30,0.0,0.0,100,0.01,,,0.01,WeatherDisplay:10.37,2013-02-23 05:50:00,
2013-02-23 00:55:00,40.2,40.2,30.09,NNE,30,0.0,0.0,100,0.02,RA,,0.02,WeatherDisplay:10.37,2013-02-23 05:55:00,
2013-02-23 01:00:00,40.2,40.2,30.08,NNE,30,0.0,0.0,100,0.02,RA,,0.02,WeatherDisplay:10.37,2013-02-23 06:00:00,
2013-02-23 01:05:00,40.1,40.1,30.08,NNE,30,0.0,0.0,100,0.02,CLR,,0.02,WeatherDisplay:10.37,2013-02-23 06:05:00,
2013-02-23 01:10:00,40.0,40.0,30.08,NNE,30,0.0,0.0,100,0.02,,,0.03,WeatherDisplay:10.37,2013-02-23 06:10:00,
2013-02-23 01:15:00,40.2,40.2,30.08,NNE,30,0.0,0.0,100,0.02,RA,,0.03,WeatherDisplay:10.37,2013-02-23 06:15:00,
2013-02-23 01:20:00,40.2,40.2,30.08,NNE,30,0.0,0.0,100,0.02,RA,,0.03,WeatherDisplay:10.37,2013-02-23 06:20:00,
2013-02-23 01:26:00,40.2,40.2,30.08,NNE,30,0.0,0.0,100,0.02,CLR,,0.03,WeatherDisplay:10.37,2013-02-23 06:26:00,
2013-02-23 01:31:00,40.2,40.2,30.08,NNE,30,0.0,0.0,100,0.02,CLR,,0.03,WeatherDisplay:10.37,2013-02-23 06:31:00,
2013-02-23 01:36:00,40.2,40.2,30.08,NNE,30,0.0,0.0,100,0.02,CLR,,0.03,WeatherDisplay:10.37,2013-02-23 06:36:00,
2013-02-23 01:41:00,40.1,40.1,30.06,NNE,30,0.0,0.0,100,0.03,RA,,0.04,WeatherDisplay:10.37,2013-02-23 06:41:00,
2013-02-23 01:46:00,39.8,39.8,30.06,NNE,30,0.0,0.0,100,0.04,RA,,0.05,WeatherDisplay:10.37,2013-02-23 06:46:00,
2013-02-23 01:51:00,39.9,39.9,30.06,NNE,30,0.0,0.0,100,0.05,RA,,0.06,WeatherDisplay:10.37,2013-02-23 06:51:00,
2013-02-23 01:56:00,40.0,40.0,30.06,NNE,30,0.0,0.0,100,0.04,RA,,0.06,WeatherDisplay:10.37,2013-02-23 06:56:00,
2013-02-23 02:01:00,39.8,39.8,30.05,NNE,30,0.0,0.0,100,0.04,,,0.06,WeatherDisplay:10.37,2013-02-23 07:01:00,
2013-02-23 02:06:00,39.6,39.6,30.04,NNE,30,0.0,0.0,100,0.04,CLR,,0.06,WeatherDisplay:10.37,2013-02-23 07:06:00,
2013-02-23 02:11:00,39.7,39.7,30.04,NNE,30,0.0,0.0,100,0.04,,,0.06,WeatherDisplay:10.37,2013-02-23 07:11:00,
2013-02-23 02:16:00,39.8,39.8,30.04,NNE,30,0.0,0.0,100,0.03,,,0.06,WeatherDisplay:10.37,2013-02-23 07:16:00,
2013-02-23 02:21:00,39.7,39.7,30.03,NNE,30,0.0,0.0,100,0.04,RA,,0.07,WeatherDisplay:10.37,2013-02-23 07:21:00,
2013-02-23 02:26:00,39.8,39.8,30.04,NNE,30,0.0,0.0,100,0.04,RA,,0.07,WeatherDisplay:10.37,2013-02-23 07:26:00,
2013-02-23 02:31:00,40.1,40.1,30.04,NNE,30,0.0,0.0,100,0.04,,,0.07,WeatherDisplay:10.37,2013-02-23 07:31:00,
2013-02-23 02:36:00,40.2,40.2,30.04,NNE,30,0.0,0.0,100,0.04,CLR,,0.07,WeatherDisplay:10.37,2013-02-23 07:36:00,
2013-02-23 02:41:00,40.1,40.1,30.05,NNE,30,0.0,0.0,100,0.03,,,0.07,WeatherDisplay:10.37,2013-02-23 07:41:00,
2013-02-23 02:46:00,40.1,40.1,30.05,NNE,30,0.0,0.0,100,0.02,CLR,,0.07,WeatherDisplay:10.37,2013-02-23 07:46:00,
2013-02-23 02:51:00,39.9,39.9,30.05,NNE,30,0.0,0.0,100,0.03,RA,,0.09,WeatherDisplay:10.37,2013-02-23 07:51:00,
2013-02-23 02:56:00,40.1,40.1,30.05,NNE,30,0.0,0.0,100,0.04,RA,,0.10,WeatherDisplay:10.37,2013-02-23 07:56:00,
2013-02-23 03:01:00,40.2,40.2,30.06,NNE,30,0.0,0.0,100,0.05,RA,,0.11,WeatherDisplay:10.37,2013-02-23 08:01:00,
2013-02-23 03:06:00,40.3,40.3,30.06,NNE,30,0.0,0.0,100,0.05,RA,,0.11,WeatherDisplay:10.37,2013-02-23 08:06:00,
2013-02-23 03:11:00,40.3,40.3,30.06,NNE,30,0.0,0.0,100,0.06,RA,,0.12,WeatherDisplay:10.37,2013-02-23 08:11:00,
2013-02-23 03:16:00,40.1,40.1,30.04,NNE,30,0.0,0.0,100,0.07,RA,,0.13,WeatherDisplay:10.37,2013-02-23 08:16:00,
2013-02-23 03:21:00,39.9,39.9,30.04,NNE,30,0.0,0.0,100,0.06,RA,,0.13,WeatherDisplay:10.37,2013-02-23 08:21:00,
2013-02-23 03:26:00,39.7,39.7,30.03,NNE,30,0.0,0.0,100,0.07,RA,,0.14,WeatherDisplay:10.37,2013-02-23 08:26:00,
2013-02-23 03:31:00,39.6,39.6,30.02,NNE,30,0.0,0.0,100,0.07,RA,,0.14,WeatherDisplay:10.37,2013-02-23 08:31:00,
2013-02-23 03:36:00,39.7,39.7,30.02,NNE,30,0.0,0.0,100,0.07,CLR,,0.15,WeatherDisplay:10.37,2013-02-23 08:36:00,
2013-02-23 03:41:00,40.0,40.0,30.02,NNE,30,0.0,0.0,100,0.08,RA,,0.15,WeatherDisplay:10.37,2013-02-23 08:41:00,
2013-02-23 03:46:00,39.9,39.9,30.00,NNE,30,0.0,0.0,100,0.08,RA,,0.16,WeatherDisplay:10.37,2013-02-23 08:46:00,
2013-02-23 03:51:00,39.8,39.8,30.00,NNE,30,0.0,0.0,100,0.07,RA,,0.16,WeatherDisplay:10.37,2013-02-23 08:51:00,
2013-02-23 03:56:00,39.8,39.8,30.00,NNE,30,0.0,0.0,100,0.06,RA,,0.16,WeatherDisplay:10.37,2013-02-23 08:56:00,
2013-02-23 04:01:00,39.6,39.6,30.00,NNE,30,0.0,0.0,100,0.06,RA,,0.17,WeatherDisplay:10.37,2013-02-23 09:01:00,
2013-02-23 04:06:00,39.5,39.5,30.00,NNE,30,0.0,0.0,100,0.06,RA,,0.17,WeatherDisplay:10.37,2013-02-23 09:06:00,
2013-02-23 04:11:00,39.4,39.4,30.01,NNE,30,0.0,0.0,100,0.05,CLR,,0.17,WeatherDisplay:10.37,2013-02-23 09:11:00,
2013-02-23 04:16:00,39.4,39.4,30.00,NNE,30,0.0,0.0,100,0.04,,,0.17,WeatherDisplay:10.37,2013-02-23 09:16:00,
2013-02-23 04:22:00,39.3,39.3,30.01,NNE,30,0.0,0.0,100,0.04,,,0.17,WeatherDisplay:10.37,2013-02-23 09:22:00,
2013-02-23 04:27:00,39.3,39.3,30.01,NNE,30,0.0,0.0,100,0.03,,,0.17,WeatherDisplay:10.37,2013-02-23 09:27:00,
2013-02-23 04:32:00,39.4,39.4,30.00,NNE,30,0.0,0.0,100,0.04,RA,,0.18,WeatherDisplay:10.37,2013-02-23 09:32:00,
2013-02-23 04:37:00,39.3,39.3,29.99,North,11,0.0,0.0,100,0.04,RA,,0.18,WeatherDisplay:10.37,2013-02-23 09:37:00,
2013-02-23 04:42:00,39.3,39.3,30.00,North,11,0.0,0.0,100,0.03,,,0.18,WeatherDisplay:10.37,2013-02-23 09:42:00,
2013-02-23 04:47:00,39.3,39.3,29.99,North,11,0.0,0.0,100,0.03,CLR,,0.18,WeatherDisplay:10.37,2013-02-23 09:47:00,
2013-02-23 04:52:00,39.3,39.3,29.99,North,11,0.0,0.0,100,0.02,,,0.18,WeatherDisplay:10.37,2013-02-23 09:52:00,
2013-02-23 04:57:00,39.3,39.3,29.98,North,11,0.0,0.0,100,0.02,,,0.18,WeatherDisplay:10.37,2013-02-23 09:57:00,
2013-02-23 05:02:00,39.1,39.1,29.97,North,11,0.0,0.0,100,0.02,RA,,0.19,WeatherDisplay:10.37,2013-02-23 10:02:00,
2013-02-23 05:07:00,39.1,39.1,29.97,NNE,31,1.1,0.0,100,0.02,RA,,0.19,WeatherDisplay:10.37,2013-02-23 10:07:00,
2013-02-23 05:12:00,38.9,38.9,29.96,NNE,31,0.0,0.0,100,0.02,CLR,,0.19,WeatherDisplay:10.37,2013-02-23 10:12:00,
2013-02-23 05:17:00,38.9,38.9,29.95,NNE,31,0.0,0.0,100,0.02,,,0.19,WeatherDisplay:10.37,2013-02-23 10:17:00,
2013-02-23 05:22:00,38.9,38.9,29.96,NW,323,3.2,3.2,100,0.02,,,0.19,WeatherDisplay:10.37,2013-02-23 10:22:00,
2013-02-23 05:27:00,38.8,38.8,29.97,North,352,0.0,0.0,100,0.02,,,0.19,WeatherDisplay:10.37,2013-02-23 10:27:00,
2013-02-23 05:32:00,39.1,39.1,29.98,North,352,0.0,0.0,100,0.02,RA,,0.20,WeatherDisplay:10.37,2013-02-23 10:32:00,
2013-02-23 05:37:00,39.1,39.1,29.98,North,353,0.0,0.0,100,0.03,RA,,0.21,WeatherDisplay:10.37,2013-02-23 10:37:00,
2013-02-23 05:42:00,39.1,39.1,29.99,North,353,0.0,0.0,100,0.03,RA,,0.21,WeatherDisplay:10.37,2013-02-23 10:42:00,
2013-02-23 05:47:00,39.2,39.2,29.99,North,353,0.0,0.0,100,0.03,CLR,,0.21,WeatherDisplay:10.37,2013-02-23 10:47:00,
2013-02-23 05:52:00,39.1,39.1,29.99,North,353,0.0,0.0,100,0.03,,,0.21,WeatherDisplay:10.37,2013-02-23 10:52:00,
2013-02-23 05:57:00,39.2,39.2,29.99,North,353,0.0,0.0,100,0.04,RA,,0.22,WeatherDisplay:10.37,2013-02-23 10:57:00,
2013-02-23 06:02:00,39.1,39.1,29.97,North,353,0.0,0.0,100,0.03,RA,,0.22,WeatherDisplay:10.37,2013-02-23 11:02:00,
2013-02-23 06:07:00,39.1,39.1,29.97,North,353,0.0,0.0,100,0.03,,,0.22,WeatherDisplay:10.37,2013-02-23 11:07:00,
2013-02-23 06:12:00,39.0,39.0,29.98,North,353,0.0,0.0,100,0.03,CLR,,0.22,WeatherDisplay:10.37,2013-02-23 11:12:00,
2013-02-23 06:17:00,39.2,39.2,29.99,North,353,0.0,0.0,100,0.03,CLR,,0.23,WeatherDisplay:10.37,2013-02-23 11:17:00,
2013-02-23 06:22:00,39.4,39.4,29.98,North,353,0.0,0.0,100,0.04,RA,,0.23,WeatherDisplay:10.37,2013-02-23 11:22:00,
2013-02-23 06:27:00,39.3,39.3,29.96,North,353,0.0,0.0,100,0.05,RA,,0.24,WeatherDisplay:10.37,2013-02-23 11:27:00,
2013-02-23 06:32:00,39.1,39.1,29.97,North,353,0.0,0.0,100,0.05,RA,,0.25,WeatherDisplay:10.37,2013-02-23 11:32:00,
2013-02-23 06:37:00,39.0,39.0,29.96,North,353,0.0,0.0,100,0.04,RA,,0.26,WeatherDisplay:10.37,2013-02-23 11:37:00,
2013-02-23 06:42:00,39.2,39.2,29.95,North,353,0.0,0.0,100,0.05,RA,,0.26,WeatherDisplay:10.37,2013-02-23 11:42:00,
2013-02-23 06:47:00,39.1,39.1,29.96,North,353,0.0,0.0,100,0.05,RA,,0.26,WeatherDisplay:10.37,2013-02-23 11:47:00,
2013-02-23 06:52:00,39.0,39.0,29.97,North,353,0.0,0.0,100,0.05,CLR,,0.26,WeatherDisplay:10.37,2013-02-23 11:52:00,
2013-02-23 06:57:00,39.1,39.1,29.98,North,353,0.0,0.0,100,0.04,CLR,,0.26,WeatherDisplay:10.37,2013-02-23 11:57:00,
2013-02-23 07:02:00,39.2,39.2,29.98,North,353,0.0,0.0,100,0.04,CLR,,0.26,WeatherDisplay:10.37,2013-02-23 12:02:00,
2013-02-23 07:07:00,39.2,39.2,29.99,North,353,0.0,0.0,100,0.04,CLR,,0.26,WeatherDisplay:10.37,2013-02-23 12:07:00,
2013-02-23 07:12:00,39.2,39.2,29.99,North,353,0.0,0.0,100,0.04,CLR,,0.26,WeatherDisplay:10.37,2013-02-23 12:12:00,
2013-02-23 07:17:00,39.3,39.3,29.99,North,353,0.0,0.0,100,0.03,CLR,,0.26,WeatherDisplay:10.37,2013-02-23 12:17:00,
2013-02-23 07:22:00,39.3,39.3,29.98,North,353,0.0,0.0,100,0.03,,,0.26,WeatherDisplay:10.37,2013-02-23 12:22:00,
2013-02-23 07:27:00,39.3,39.3,29.98,North,353,0.0,0.0,100,0.02,CLR,,0.26,WeatherDisplay:10.37,2013-02-23 12:27:00,
2013-02-23 07:32:00,39.6,39.6,29.99,North,353,0.0,0.0,100,0.01,CLR,,0.26,WeatherDisplay:10.37,2013-02-23 12:32:00,
2013-02-23 07:37:00,40.0,40.0,29.98,North,353,0.0,0.0,100,0.00,CLR,,0.26,WeatherDisplay:10.37,2013-02-23 12:37:00,
2013-02-23 07:42:00,40.1,40.1,29.97,North,353,0.0,0.0,100,0.01,RA,,0.27,WeatherDisplay:10.37,2013-02-23 12:42:00,
2013-02-23 07:47:00,39.7,39.7,29.98,North,353,0.0,0.0,100,0.01,RA,,0.27,WeatherDisplay:10.37,2013-02-23 12:47:00,
2013-02-23 07:52:00,39.8,39.8,29.98,North,353,0.0,0.0,100,0.02,RA,,0.28,WeatherDisplay:10.37,2013-02-23 12:52:00,
2013-02-23 07:57:00,39.7,39.7,29.98,North,353,0.0,0.0,100,0.02,RA,,0.28,WeatherDisplay:10.37,2013-02-23 12:57:00,
2013-02-23 08:02:00,39.7,39.7,29.97,North,353,0.0,0.0,100,0.03,RA,,0.29,WeatherDisplay:10.37,2013-02-23 13:02:00,
2013-02-23 08:07:00,39.6,39.6,29.97,North,353,0.0,0.0,100,0.03,RA,,0.29,WeatherDisplay:10.37,2013-02-23 13:07:00,
2013-02-23 08:12:00,39.6,39.6,29.97,North,353,0.0,0.0,100,0.03,,,0.29,WeatherDisplay:10.37,2013-02-23 13:12:00,
2013-02-23 08:17:00,39.5,39.5,29.98,North,353,0.0,0.0,100,0.03,CLR,,0.29,WeatherDisplay:10.37,2013-02-23 13:17:00,
2013-02-23 08:22:00,39.5,39.5,29.98,North,353,0.0,0.0,100,0.04,RA,,0.30,WeatherDisplay:10.37,2013-02-23 13:22:00,
2013-02-23 08:27:00,39.7,39.7,29.98,North,353,0.0,0.0,100,0.04,RA,,0.30,WeatherDisplay:10.37,2013-02-23 13:27:00,
2013-02-23 08:32:00,39.7,39.7,29.97,North,353,0.0,0.0,100,0.05,RA,,0.31,WeatherDisplay:10.37,2013-02-23 13:32:00,
2013-02-23 08:37:00,39.9,39.9,29.98,North,353,0.0,0.0,100,0.05,RA,,0.31,WeatherDisplay:10.37,2013-02-23 13:37:00,
2013-02-23 08:42:00,40.0,40.0,29.98,North,353,0.0,0.0,100,0.05,RA,,0.32,WeatherDisplay:10.37,2013-02-23 13:42:00,
2013-02-23 08:47:00,40.3,40.3,29.99,North,353,0.0,0.0,100,0.05,RA,,0.32,WeatherDisplay:10.37,2013-02-23 13:47:00,
2013-02-23 08:52:00,40.5,40.5,29.99,North,353,0.0,0.0,100,0.04,CLR,,0.33,WeatherDisplay:10.37,2013-02-23 13:52:00,
2013-02-23 08:57:00,40.9,40.9,29.99,North,353,0.0,0.0,100,0.05,RA,,0.33,WeatherDisplay:10.37,2013-02-23 13:57:00,
2013-02-23 09:02:00,40.8,40.8,29.99,North,353,0.0,0.0,100,0.05,RA,,0.34,WeatherDisplay:10.37,2013-02-23 14:02:00,
2013-02-23 09:07:00,40.6,40.6,29.99,North,353,0.0,0.0,100,0.06,RA,,0.35,WeatherDisplay:10.37,2013-02-23 14:07:00,
2013-02-23 09:12:00,40.7,40.7,29.99,North,353,0.0,0.0,100,0.06,RA,,0.35,WeatherDisplay:10.37,2013-02-23 14:12:00,
2013-02-23 09:17:00,40.7,40.7,29.99,North,353,0.0,0.0,100,0.07,RA,,0.36,WeatherDisplay:10.37,2013-02-23 14:17:00,
2013-02-23 09:22:00,40.6,40.6,29.99,North,353,0.0,0.0,100,0.06,RA,,0.37,WeatherDisplay:10.37,2013-02-23 14:22:00,
2013-02-23 09:27:00,40.7,40.7,29.98,North,353,0.0,0.0,100,0.07,RA,,0.37,WeatherDisplay:10.37,2013-02-23 14:27:00,
2013-02-23 09:32:00,40.8,40.8,29.98,North,353,0.0,0.0,100,0.06,RA,,0.37,WeatherDisplay:10.37,2013-02-23 14:32:00,
2013-02-23 09:37:00,40.8,40.8,29.98,North,353,0.0,0.0,100,0.07,RA,,0.38,WeatherDisplay:10.37,2013-02-23 14:37:00,
2013-02-23 09:42:00,40.8,40.8,29.96,North,353,0.0,0.0,100,0.07,RA,,0.39,WeatherDisplay:10.37,2013-02-23 14:42:00,
2013-02-23 09:47:00,40.9,40.9,29.95,North,353,0.0,0.0,100,0.08,RA,,0.40,WeatherDisplay:10.37,2013-02-23 14:47:00,
2013-02-23 09:52:00,41.0,41.0,29.95,North,353,0.0,0.0,100,0.08,RA,,0.40,WeatherDisplay:10.37,2013-02-23 14:52:00,
2013-02-23 09:58:00,41.3,41.3,29.95,North,353,0.0,0.0,100,0.07,CLR,,0.40,WeatherDisplay:10.37,2013-02-23 14:58:00,
2013-02-23 10:02:00,41.3,41.3,29.96,North,353,0.0,0.0,100,0.07,RA,,0.41,WeatherDisplay:10.37,2013-02-23 15:02:00,
2013-02-23 10:08:00,41.2,41.2,29.95,North,353,0.0,0.0,100,0.06,RA,,0.41,WeatherDisplay:10.37,2013-02-23 15:08:00,
2013-02-23 10:13:00,41.1,41.1,29.95,North,353,0.0,0.0,100,0.06,CLR,,0.41,WeatherDisplay:10.37,2013-02-23 15:13:00,
2013-02-23 10:18:00,41.2,41.2,29.95,North,353,0.0,0.0,100,0.05,CLR,,0.41,WeatherDisplay:10.37,2013-02-23 15:18:00,
2013-02-23 10:23:00,42.0,42.0,29.95,North,353,0.0,0.0,100,0.05,CLR,,0.41,WeatherDisplay:10.37,2013-02-23 15:23:00,
2013-02-23 10:28:00,42.6,42.6,29.94,North,353,0.0,0.0,100,0.04,CLR,,0.41,WeatherDisplay:10.37,2013-02-23 15:28:00,
2013-02-23 10:33:00,42.2,42.2,29.94,North,353,0.0,0.0,100,0.04,CLR,,0.41,WeatherDisplay:10.37,2013-02-23 15:33:00,
2013-02-23 10:38:00,41.9,41.9,29.94,North,353,0.0,0.0,100,0.03,CLR,,0.41,WeatherDisplay:10.37,2013-02-23 15:38:00,
2013-02-23 10:43:00,41.6,41.6,29.94,North,353,0.0,0.0,100,0.02,CLR,,0.41,WeatherDisplay:10.37,2013-02-23 15:43:00,
2013-02-23 10:48:00,41.6,41.6,29.95,NNW,337,2.3,2.3,100,0.01,CLR,,0.41,WeatherDisplay:10.37,2013-02-23 15:48:00,
2013-02-23 10:53:00,41.4,41.4,29.95,NNW,337,0.0,0.0,100,0.01,CLR,,0.41,WeatherDisplay:10.37,2013-02-23 15:53:00,
2013-02-23 10:58:00,41.5,41.5,29.95,NNW,337,0.0,0.0,100,0.01,CLR,,0.41,WeatherDisplay:10.37,2013-02-23 15:58:00,
2013-02-23 11:03:00,41.5,41.5,29.95,NNW,336,1.5,1.5,100,0.00,,,0.41,WeatherDisplay:10.37,2013-02-23 16:03:00,
2013-02-23 11:08:00,41.4,41.4,29.96,NNW,336,0.0,0.0,100,0.00,,,0.41,WeatherDisplay:10.37,2013-02-23 16:08:00,
2013-02-23 11:13:00,41.4,41.4,29.96,NNW,336,0.0,0.0,100,0.00,,,0.41,WeatherDisplay:10.37,2013-02-23 16:13:00,
2013-02-23 11:18:00,41.5,41.5,29.97,NNW,336,0.0,0.0,100,0.00,,,0.41,WeatherDisplay:10.37,2013-02-23 16:18:00,
2013-02-23 11:23:00,41.6,41.6,29.98,NNW,336,0.0,0.0,100,0.00,,,0.41,WeatherDisplay:10.37,2013-02-23 16:23:00,
2013-02-23 11:28:00,41.7,41.7,29.97,NNW,336,0.0,0.0,100,0.00,,,0.41,WeatherDisplay:10.37,2013-02-23 16:28:00,
2013-02-23 11:33:00,41.6,41.6,29.97,NNW,336,0.0,0.0,100,0.00,,,0.41,WeatherDisplay:10.37,2013-02-23 16:33:00,
2013-02-23 11:38:00,41.7,41.7,29.97,NNW,336,0.0,0.0,100,0.00,,,0.41,WeatherDisplay:10.37,2013-02-23 16:38:00,
2013-02-23 11:43:00,41.9,41.9,29.97,NNW,336,0.0,0.0,100,0.00,,,0.41,WeatherDisplay:10.37,2013-02-23 16:43:00,
2013-02-23 11:48:00,42.1,42.1,29.97,NNW,336,0.0,0.0,100,0.00,,,0.41,WeatherDisplay:10.37,2013-02-23 16:48:00,
2013-02-23 11:53:00,42.6,42.6,29.97,NNW,336,0.0,0.0,100,0.00,,,0.41,WeatherDisplay:10.37,2013-02-23 16:53:00,
2013-02-23 11:58:00,43.7,43.7,29.97,NNW,336,0.0,0.0,100,0.00,,,0.41,WeatherDisplay:10.37,2013-02-23 16:58:00,
2013-02-23 12:03:00,44.3,44.3,29.97,NNW,336,0.0,0.0,100,0.00,,,0.41,WeatherDisplay:10.37,2013-02-23 17:03:00,
2013-02-23 12:08:00,44.1,44.1,29.96,NNW,336,0.0,0.0,100,0.00,,,0.41,WeatherDisplay:10.37,2013-02-23 17:08:00,
2013-02-23 12:13:00,44.3,44.3,29.96,NNW,336,0.0,0.0,100,0.00,,,0.41,WeatherDisplay:10.37,2013-02-23 17:13:00,
2013-02-23 12:18:00,45.0,45.0,29.95,NNW,336,0.0,0.0,100,0.00,,,0.41,WeatherDisplay:10.37,2013-02-23 17:18:00,
2013-02-23 12:23:00,45.3,45.3,29.94,NNW,336,0.0,0.0,100,0.00,,,0.41,WeatherDisplay:10.37,2013-02-23 17:23:00,
2013-02-23 12:28:00,45.2,45.2,29.93,NNW,336,0.0,0.0,100,0.00,,,0.41,WeatherDisplay:10.37,2013-02-23 17:28:00,
2013-02-23 12:33:00,44.8,44.8,29.93,NE,41,0.0,0.0,100,0.00,,,0.41,WeatherDisplay:10.37,2013-02-23 17:33:00,
2013-02-23 12:38:00,44.6,44.6,29.93,NE,41,0.0,0.0,100,0.00,,,0.41,WeatherDisplay:10.37,2013-02-23 17:38:00,
2013-02-23 12:43:00,44.6,44.6,29.93,NE,41,0.0,0.0,100,0.00,,,0.41,WeatherDisplay:10.37,2013-02-23 17:43:00,
2013-02-23 12:48:00,44.5,44.5,29.92,NE,41,0.0,0.0,100,0.00,,,0.41,WeatherDisplay:10.37,2013-02-23 17:48:00,
2013-02-23 12:53:00,45.1,45.1,29.93,North,360,0.0,0.0,100,0.00,,,0.41,WeatherDisplay:10.37,2013-02-23 17:53:00,
2013-02-23 12:58:00,44.7,44.7,29.92,North,0,0.0,0.0,100,0.00,,,0.41,WeatherDisplay:10.37,2013-02-23 17:58:00,
2013-02-23 13:03:00,44.5,44.5,29.92,North,0,0.0,0.0,100,0.00,,,0.41,WeatherDisplay:10.37,2013-02-23 18:03:00,
2013-02-23 13:08:00,44.4,44.4,29.92,North,0,0.0,0.0,100,0.00,,,0.41,WeatherDisplay:10.37,2013-02-23 18:08:00,
2013-02-23 13:13:00,44.5,44.5,29.93,North,7,0.0,0.0,100,0.00,,,0.41,WeatherDisplay:10.37,2013-02-23 18:13:00,
2013-02-23 13:18:00,44.8,44.8,29.92,North,7,0.0,0.0,100,0.00,,,0.41,WeatherDisplay:10.37,2013-02-23 18:18:00,
2013-02-23 13:23:00,44.9,44.9,29.92,North,7,0.0,0.0,100,0.00,,,0.41,WeatherDisplay:10.37,2013-02-23 18:23:00,
2013-02-23 13:28:00,45.0,45.0,29.92,WSW,251,2.3,2.3,100,0.00,,,0.41,WeatherDisplay:10.37,2013-02-23 18:28:00,
2013-02-23 13:33:00,45.0,45.0,29.92,WSW,251,0.0,0.0,100,0.00,,,0.41,WeatherDisplay:10.37,2013-02-23 18:33:00,
2013-02-23 13:38:00,44.9,44.9,29.91,NW,309,0.0,0.0,100,0.00,,,0.41,WeatherDisplay:10.37,2013-02-23 18:38:00,
2013-02-23 13:43:00,44.9,44.9,29.91,NW,309,0.0,0.0,100,0.00,,,0.41,WeatherDisplay:10.37,2013-02-23 18:43:00,
2013-02-23 13:48:00,45.1,45.1,29.91,NW,309,0.0,0.0,100,0.00,,,0.41,WeatherDisplay:10.37,2013-02-23 18:48:00,
2013-02-23 13:53:00,45.2,45.2,29.91,NW,309,0.0,0.0,100,0.00,,,0.41,WeatherDisplay:10.37,2013-02-23 18:53:00,
2013-02-23 13:58:00,45.1,45.1,29.91,NW,309,0.0,0.0,100,0.00,,,0.41,WeatherDisplay:10.37,2013-02-23 18:58:00,
2013-02-23 14:03:00,46.3,46.3,29.91,NW,309,0.0,0.0,100,0.00,,,0.41,WeatherDisplay:10.37,2013-02-23 19:03:00,
2013-02-23 14:08:00,46.6,46.6,29.91,NW,309,0.0,0.0,100,0.00,CLR,,0.41,WeatherDisplay:10.37,2013-02-23 19:08:00,
2013-02-23 14:13:00,47.6,47.6,29.91,NW,309,0.0,0.0,100,0.00,CLR,,0.41,WeatherDisplay:10.37,2013-02-23 19:13:00,
2013-02-23 14:18:00,48.5,48.5,29.92,NW,309,0.0,0.0,100,0.00,CLR,,0.41,WeatherDisplay:10.37,2013-02-23 19:18:00,
2013-02-23 14:23:00,48.3,48.3,29.91,NW,309,0.0,0.0,100,0.00,CLR,,0.41,WeatherDisplay:10.37,2013-02-23 19:23:00,
2013-02-23 14:28:00,48.2,48.2,29.91,NW,309,0.0,0.0,100,0.00,CLR,,0.41,WeatherDisplay:10.37,2013-02-23 19:28:00,
2013-02-23 14:33:00,48.4,48.4,29.90,NW,309,0.0,0.0,100,0.00,CLR,,0.41,WeatherDisplay:10.37,2013-02-23 19:33:00,
2013-02-23 14:38:00,48.3,48.3,29.90,NW,309,0.0,0.0,100,0.00,CLR,,0.41,WeatherDisplay:10.37,2013-02-23 19:38:00,
2013-02-23 14:43:00,48.1,48.1,29.90,NW,309,0.0,0.0,100,0.00,CLR,,0.41,WeatherDisplay:10.37,2013-02-23 19:43:00,
2013-02-23 14:48:00,48.2,48.2,29.90,NW,309,0.0,0.0,100,0.00,CLR,,0.41,WeatherDisplay:10.37,2013-02-23 19:48:00,
2013-02-23 14:53:00,47.7,47.7,29.90,NW,309,0.0,0.0,100,0.00,CLR,,0.41,WeatherDisplay:10.37,2013-02-23 19:53:00,
2013-02-23 14:58:00,48.2,48.2,29.91,NW,309,0.0,0.0,100,0.00,CLR,,0.41,WeatherDisplay:10.37,2013-02-23 19:58:00,
2013-02-23 15:03:00,48.6,48.6,29.91,NW,309,0.0,0.0,100,0.00,CLR,,0.41,WeatherDisplay:10.37,2013-02-23 20:03:00,
2013-02-23 15:08:00,48.2,48.2,29.91,NW,309,0.0,0.0,100,0.00,CLR,,0.41,WeatherDisplay:10.37,2013-02-23 20:08:00,
2013-02-23 15:13:00,47.7,47.7,29.91,NW,309,0.0,0.0,100,0.00,CLR,,0.41,WeatherDisplay:10.37,2013-02-23 20:13:00,
2013-02-23 15:18:00,47.3,47.3,29.90,NW,309,0.0,0.0,100,0.00,CLR,,0.41,WeatherDisplay:10.37,2013-02-23 20:18:00,
2013-02-23 15:23:00,47.0,47.0,29.89,NW,309,0.0,0.0,100,0.00,CLR,,0.41,WeatherDisplay:10.37,2013-02-23 20:23:00,
2013-02-23 15:28:00,46.8,46.8,29.90,NW,309,0.0,0.0,100,0.00,CLR,,0.41,WeatherDisplay:10.37,2013-02-23 20:28:00,
2013-02-23 15:33:00,46.5,46.5,29.89,NW,309,0.0,0.0,100,0.00,CLR,,0.41,WeatherDisplay:10.37,2013-02-23 20:33:00,
2013-02-23 15:38:00,47.5,47.5,29.90,NW,309,0.0,0.0,100,0.00,CLR,,0.41,WeatherDisplay:10.37,2013-02-23 20:38:00,
2013-02-23 15:43:00,48.3,48.3,29.90,NW,309,0.0,0.0,100,0.00,CLR,,0.41,WeatherDisplay:10.37,2013-02-23 20:43:00,
2013-02-23 15:48:00,48.9,48.9,29.90,NW,309,0.0,0.0,100,0.00,CLR,,0.41,WeatherDisplay:10.37,2013-02-23 20:48:00,
2013-02-23 15:53:00,49.0,49.0,29.89,NW,309,0.0,0.0,100,0.00,CLR,,0.41,WeatherDisplay:10.37,2013-02-23 20:53:00,
2013-02-23 15:59:00,48.4,48.4,29.89,NW,309,0.0,0.0,100,0.00,CLR,,0.41,WeatherDisplay:10.37,2013-02-23 20:59:00,
2013-02-23 16:04:00,48.0,48.0,29.89,NW,309,0.0,0.0,100,0.00,CLR,,0.41,WeatherDisplay:10.37,2013-02-23 21:04:00,
2013-02-23 16:09:00,47.8,47.8,29.89,NW,309,0.0,0.0,100,0.00,CLR,,0.41,WeatherDisplay:10.37,2013-02-23 21:09:00,
2013-02-23 16:14:00,47.4,47.4,29.89,NW,309,0.0,0.0,100,0.00,CLR,,0.41,WeatherDisplay:10.37,2013-02-23 21:14:00,
2013-02-23 16:19:00,47.3,47.3,29.89,NW,309,0.0,0.0,100,0.00,CLR,,0.41,WeatherDisplay:10.37,2013-02-23 21:19:00,
2013-02-23 16:24:00,47.1,47.1,29.88,NW,309,0.0,0.0,100,0.00,CLR,,0.41,WeatherDisplay:10.37,2013-02-23 21:24:00,
2013-02-23 16:29:00,46.8,46.8,29.87,NW,309,0.0,0.0,100,0.00,CLR,,0.41,WeatherDisplay:10.37,2013-02-23 21:29:00,
2013-02-23 16:34:00,46.4,46.4,29.87,NW,309,0.0,0.0,100,0.00,CLR,,0.41,WeatherDisplay:10.37,2013-02-23 21:34:00,
2013-02-23 16:39:00,46.5,46.5,29.88,NW,309,0.0,0.0,100,0.00,CLR,,0.41,WeatherDisplay:10.37,2013-02-23 21:39:00,
2013-02-23 16:44:00,46.7,46.7,29.88,NW,309,0.0,0.0,100,0.00,CLR,,0.41,WeatherDisplay:10.37,2013-02-23 21:44:00,
2013-02-23 16:49:00,47.0,47.0,29.87,NW,309,0.0,0.0,100,0.00,CLR,,0.41,WeatherDisplay:10.37,2013-02-23 21:49:00,
2013-02-23 16:54:00,46.8,46.8,29.87,NW,309,0.0,0.0,100,0.00,CLR,,0.41,WeatherDisplay:10.37,2013-02-23 21:54:00,
2013-02-23 16:59:00,46.7,46.7,29.87,NW,309,0.0,0.0,100,0.00,CLR,,0.41,WeatherDisplay:10.37,2013-02-23 21:59:00,
2013-02-23 17:04:00,46.4,46.4,29.86,NW,309,0.0,0.0,100,0.00,CLR,,0.41,WeatherDisplay:10.37,2013-02-23 22:04:00,
2013-02-23 17:09:00,46.3,46.3,29.86,NW,309,0.0,0.0,100,0.00,,,0.41,WeatherDisplay:10.37,2013-02-23 22:09:00,
2013-02-23 17:14:00,46.3,46.3,29.86,NW,309,0.0,0.0,100,0.00,,,0.41,WeatherDisplay:10.37,2013-02-23 22:14:00,
2013-02-23 17:19:00,46.3,46.3,29.85,NW,309,0.0,0.0,100,0.00,,,0.41,WeatherDisplay:10.37,2013-02-23 22:19:00,
2013-02-23 17:24:00,46.3,46.3,29.85,NW,309,0.0,0.0,100,0.00,,,0.41,WeatherDisplay:10.37,2013-02-23 22:24:00,
2013-02-23 17:29:00,46.2,46.2,29.85,NW,309,0.0,0.0,100,0.00,,,0.41,WeatherDisplay:10.37,2013-02-23 22:29:00,
2013-02-23 17:34:00,46.3,46.3,29.85,NW,309,0.0,0.0,100,0.00,,,0.41,WeatherDisplay:10.37,2013-02-23 22:34:00,
2013-02-23 17:39:00,46.4,46.4,29.85,NW,309,0.0,0.0,100,0.00,,,0.41,WeatherDisplay:10.37,2013-02-23 22:39:00,
2013-02-23 17:44:00,46.5,46.5,29.84,NW,309,0.0,0.0,100,0.00,CLR,,0.41,WeatherDisplay:10.37,2013-02-23 22:44:00,
2013-02-23 17:49:00,46.6,46.6,29.85,NW,309,0.0,0.0,100,0.00,CLR,,0.41,WeatherDisplay:10.37,2013-02-23 22:49:00,
2013-02-23 17:54:00,46.4,46.4,29.84,NW,309,0.0,0.0,100,0.00,,,0.41,WeatherDisplay:10.37,2013-02-23 22:54:00,
2013-02-23 17:59:00,46.3,46.3,29.84,NW,309,0.0,0.0,100,0.00,,,0.41,WeatherDisplay:10.37,2013-02-23 22:59:00,
2013-02-23 18:04:00,46.3,46.3,29.84,NW,309,0.0,0.0,100,0.00,,,0.41,WeatherDisplay:10.37,2013-02-23 23:04:00,
2013-02-23 18:09:00,46.3,46.3,29.83,NW,309,0.0,0.0,100,0.00,,,0.41,WeatherDisplay:10.37,2013-02-23 23:09:00,
2013-02-23 18:14:00,46.3,46.3,29.84,NW,309,0.0,0.0,100,0.00,,,0.41,WeatherDisplay:10.37,2013-02-23 23:14:00,
2013-02-23 18:19:00,46.2,46.2,29.83,NW,309,0.0,0.0,100,0.00,,,0.41,WeatherDisplay:10.37,2013-02-23 23:19:00,
2013-02-23 18:24:00,46.2,46.2,29.84,NW,309,0.0,0.0,100,0.00,,,0.41,WeatherDisplay:10.37,2013-02-23 23:24:00,
2013-02-23 18:29:00,46.3,46.3,29.84,NW,309,0.0,0.0,100,0.00,,,0.41,WeatherDisplay:10.37,2013-02-23 23:29:00,
2013-02-23 18:34:00,46.2,46.2,29.85,NW,309,0.0,0.0,100,0.00,,,0.41,WeatherDisplay:10.37,2013-02-23 23:34:00,
2013-02-23 18:39:00,46.2,46.2,29.84,NW,309,0.0,0.0,100,0.00,,,0.41,WeatherDisplay:10.37,2013-02-23 23:39:00,
2013-02-23 18:44:00,46.2,46.2,29.84,NW,309,0.0,0.0,100,0.00,,,0.41,WeatherDisplay:10.37,2013-02-23 23:44:00,
2013-02-23 18:49:00,46.2,46.2,29.85,NW,309,0.0,0.0,100,0.00,,,0.41,WeatherDisplay:10.37,2013-02-23 23:49:00,
2013-02-23 18:54:00,46.2,46.2,29.84,NW,309,0.0,0.0,100,0.00,,,0.41,WeatherDisplay:10.37,2013-02-23 23:54:00,
2013-02-23 18:59:00,46.1,46.1,29.85,NW,309,0.0,0.0,100,0.00,,,0.41,WeatherDisplay:10.37,2013-02-23 23:59:00,
2013-02-23 19:04:00,46.1,46.1,29.85,NW,309,0.0,0.0,100,0.00,,,0.41,WeatherDisplay:10.37,2013-02-24 00:04:00,
2013-02-23 19:09:00,46.9,46.9,29.85,NW,309,0.0,0.0,100,0.00,CLR,,0.41,WeatherDisplay:10.37,2013-02-24 00:09:00,
2013-02-23 19:14:00,47.7,47.7,29.85,NW,309,0.0,0.0,100,0.00,CLR,,0.41,WeatherDisplay:10.37,2013-02-24 00:14:00,
2013-02-23 19:19:00,47.6,47.6,29.85,NW,309,0.0,0.0,100,0.00,CLR,,0.41,WeatherDisplay:10.37,2013-02-24 00:19:00,
2013-02-23 19:24:00,47.4,47.4,29.85,NW,309,0.0,0.0,100,0.00,CLR,,0.41,WeatherDisplay:10.37,2013-02-24 00:24:00,
2013-02-23 19:29:00,47.1,47.1,29.85,NW,309,0.0,0.0,100,0.00,CLR,,0.41,WeatherDisplay:10.37,2013-02-24 00:29:00,
2013-02-23 19:34:00,47.1,47.1,29.85,NW,309,0.0,0.0,100,0.00,CLR,,0.41,WeatherDisplay:10.37,2013-02-24 00:34:00,
2013-02-23 19:39:00,47.1,47.1,29.85,NW,309,0.0,0.0,100,0.00,CLR,,0.41,WeatherDisplay:10.37,2013-02-24 00:39:00,
2013-02-23 19:44:00,46.9,46.9,29.85,NW,309,0.0,0.0,100,0.00,CLR,,0.41,WeatherDisplay:10.37,2013-02-24 00:44:00,
2013-02-23 19:49:00,46.7,46.7,29.86,NW,309,0.0,0.0,100,0.00,CLR,,0.41,WeatherDisplay:10.37,2013-02-24 00:49:00,
2013-02-23 19:54:00,46.5,46.5,29.85,NW,309,0.0,0.0,100,0.00,CLR,,0.41,WeatherDisplay:10.37,2013-02-24 00:54:00,
2013-02-23 19:59:00,46.4,46.4,29.85,NW,309,0.0,0.0,100,0.00,CLR,,0.41,WeatherDisplay:10.37,2013-02-24 00:59:00,
2013-02-23 20:04:00,46.4,46.4,29.85,NW,309,0.0,0.0,100,0.00,,,0.41,WeatherDisplay:10.37,2013-02-24 01:04:00,
2013-02-23 20:09:00,46.4,46.4,29.85,NW,309,0.0,0.0,100,0.00,,,0.41,WeatherDisplay:10.37,2013-02-24 01:09:00,
2013-02-23 20:14:00,46.4,46.4,29.85,NW,309,0.0,0.0,100,0.00,,,0.41,WeatherDisplay:10.37,2013-02-24 01:14:00,
2013-02-23 20:20:00,46.3,46.3,29.84,NW,309,0.0,0.0,100,0.00,,,0.41,WeatherDisplay:10.37,2013-02-24 01:20:00,
2013-02-23 20:25:00,46.3,46.3,29.85,NW,309,0.0,0.0,100,0.00,,,0.41,WeatherDisplay:10.37,2013-02-24 01:25:00,
2013-02-23 20:30:00,46.0,46.0,29.84,NW,309,0.0,0.0,100,0.00,,,0.41,WeatherDisplay:10.37,2013-02-24 01:30:00,
2013-02-23 20:35:00,46.0,46.0,29.85,NW,309,0.0,0.0,100,0.00,,,0.41,WeatherDisplay:10.37,2013-02-24 01:35:00,
2013-02-23 20:40:00,46.0,46.0,29.85,NW,309,0.0,0.0,100,0.00,,,0.41,WeatherDisplay:10.37,2013-02-24 01:40:00,
2013-02-23 20:45:00,46.2,46.2,29.87,NW,309,0.0,0.0,100,0.00,,,0.41,WeatherDisplay:10.37,2013-02-24 01:45:00,
2013-02-23 20:50:00,46.3,46.3,29.86,NW,309,0.0,0.0,100,0.00,,,0.41,WeatherDisplay:10.37,2013-02-24 01:50:00,
2013-02-23 20:55:00,46.2,46.2,29.86,NW,309,0.0,0.0,100,0.00,,,0.41,WeatherDisplay:10.37,2013-02-24 01:55:00,
2013-02-23 21:00:00,46.1,46.1,29.86,NW,309,0.0,0.0,100,0.00,,,0.41,WeatherDisplay:10.37,2013-02-24 02:00:00,
2013-02-23 21:05:00,46.0,46.0,29.85,NW,309,0.0,0.0,100,0.00,,,0.41,WeatherDisplay:10.37,2013-02-24 02:05:00,
2013-02-23 21:10:00,45.9,45.9,29.85,NW,309,0.0,0.0,100,0.00,,,0.41,WeatherDisplay:10.37,2013-02-24 02:10:00,
2013-02-23 21:15:00,46.0,46.0,29.85,NW,309,0.0,0.0,100,0.00,,,0.41,WeatherDisplay:10.37,2013-02-24 02:15:00,
2013-02-23 21:20:00,46.1,46.1,29.85,NW,309,0.0,0.0,100,0.00,,,0.41,WeatherDisplay:10.37,2013-02-24 02:20:00,
2013-02-23 21:25:00,46.0,46.0,29.84,NW,309,0.0,0.0,100,0.00,,,0.41,WeatherDisplay:10.37,2013-02-24 02:25:00,
2013-02-23 21:30:00,45.9,45.9,29.85,NW,309,0.0,0.0,100,0.00,,,0.41,WeatherDisplay:10.37,2013-02-24 02:30:00,
2013-02-23 21:35:00,45.9,45.9,29.85,NW,309,0.0,0.0,100,0.00,,,0.41,WeatherDisplay:10.37,2013-02-24 02:35:00,
2013-02-23 21:40:00,45.9,45.9,29.85,NW,309,0.0,0.0,100,0.00,,,0.41,WeatherDisplay:10.37,2013-02-24 02:40:00,
2013-02-23 21:45:00,46.1,46.1,29.85,NW,309,0.0,0.0,100,0.00,,,0.41,WeatherDisplay:10.37,2013-02-24 02:45:00,
2013-02-23 21:50:00,46.4,46.4,29.86,NW,309,0.0,0.0,100,0.00,,,0.41,WeatherDisplay:10.37,2013-02-24 02:50:00,
2013-02-23 21:55:00,46.5,46.5,29.86,NW,309,0.0,0.0,100,0.00,CLR,,0.41,WeatherDisplay:10.37,2013-02-24 02:55:00,
2013-02-23 22:00:00,46.5,46.5,29.85,NW,309,0.0,0.0,100,0.00,CLR,,0.41,WeatherDisplay:10.37,2013-02-24 03:00:00,
2013-02-23 22:05:00,46.6,46.6,29.86,NW,309,0.0,0.0,100,0.00,CLR,,0.41,WeatherDisplay:10.37,2013-02-24 03:05:00,
2013-02-23 22:10:00,46.8,46.8,29.85,NW,309,0.0,0.0,100,0.00,CLR,,0.41,WeatherDisplay:10.37,2013-02-24 03:10:00,
2013-02-23 22:15:00,46.7,46.7,29.85,NW,309,0.0,0.0,100,0.00,CLR,,0.41,WeatherDisplay:10.37,2013-02-24 03:15:00,
2013-02-23 22:20:00,46.5,46.5,29.85,NW,309,0.0,0.0,100,0.00,CLR,,0.41,WeatherDisplay:10.37,2013-02-24 03:20:00,
2013-02-23 22:25:00,46.4,46.4,29.85,NW,309,0.0,0.0,100,0.00,CLR,,0.41,WeatherDisplay:10.37,2013-02-24 03:25:00,
2013-02-23 22:30:00,46.3,46.3,29.85,NW,309,0.0,0.0,100,0.00,,,0.41,WeatherDisplay:10.37,2013-02-24 03:30:00,
2013-02-23 22:35:00,46.4,46.4,29.85,NW,309,0.0,0.0,100,0.00,,,0.41,WeatherDisplay:10.37,2013-02-24 03:35:00,
2013-02-23 22:40:00,46.6,46.6,29.85,NW,309,0.0,0.0,100,0.00,CLR,,0.41,WeatherDisplay:10.37,2013-02-24 03:40:00,
2013-02-23 22:45:00,46.6,46.6,29.85,NW,309,0.0,0.0,100,0.00,CLR,,0.41,WeatherDisplay:10.37,2013-02-24 03:45:00,
2013-02-23 22:50:00,46.7,46.7,29.85,NW,309,0.0,0.0,100,0.00,CLR,,0.41,WeatherDisplay:10.37,2013-02-24 03:50:00,
2013-02-23 22:55:00,46.8,46.8,29.85,NW,309,0.0,0.0,100,0.00,CLR,,0.41,WeatherDisplay:10.37,2013-02-24 03:55:00,
2013-02-23 23:00:00,46.9,46.9,29.85,NW,309,0.0,0.0,100,0.00,CLR,,0.41,WeatherDisplay:10.37,2013-02-24 04:00:00,
2013-02-23 23:05:00,47.0,47.0,29.85,NW,309,0.0,0.0,100,0.00,CLR,,0.41,WeatherDisplay:10.37,2013-02-24 04:05:00,
2013-02-23 23:10:00,47.2,47.2,29.84,NW,309,0.0,0.0,100,0.00,CLR,,0.41,WeatherDisplay:10.37,2013-02-24 04:10:00,
2013-02-23 23:15:00,47.2,47.2,29.84,NW,309,0.0,0.0,100,0.00,CLR,,0.41,WeatherDisplay:10.37,2013-02-24 04:15:00,
2013-02-23 23:20:00,47.4,47.4,29.85,NW,309,0.0,0.0,100,0.00,CLR,,0.41,WeatherDisplay:10.37,2013-02-24 04:20:00,
2013-02-23 23:25:00,47.3,47.3,29.85,NW,309,0.0,0.0,100,0.00,CLR,,0.41,WeatherDisplay:10.37,2013-02-24 04:25:00,
2013-02-23 23:30:00,47.3,47.3,29.85,NW,309,0.0,0.0,100,0.00,CLR,,0.41,WeatherDisplay:10.37,2013-02-24 04:30:00,
2013-02-23 23:35:00,47.3,47.3,29.85,NW,309,0.0,0.0,100,0.00,CLR,,0.41,WeatherDisplay:10.37,2013-02-24 04:35:00,
2013-02-23 23:40:00,47.3,47.3,29.85,NW,309,0.0,0.0,100,0.00,CLR,,0.41,WeatherDisplay:10.37,2013-02-24 04:40:00,
2013-02-23 23:45:00,47.2,47.2,29.85,NW,309,0.0,0.0,100,0.00,CLR,,0.41,WeatherDisplay:10.37,2013-02-24 04:45:00,
2013-02-23 23:50:00,47.1,47.1,29.85,South,189,0.0,0.0,100,0.00,CLR,,0.41,WeatherDisplay:10.37,2013-02-24 04:50:00,
2013-02-23 23:55:00,47.2,47.2,29.86,SSE,154,3.5,3.5,100,0.00,CLR,,0.41,WeatherDisplay:10.37,2013-02-24 04:55:00,